Terminal Aerodrome Forecast
Issued by NWS Tuscon, AZ

Home | Current Version | Previous Version | Text Only | Print | Product List | Glossary On
Versions: 1 2 3 4 5 6 7 8 9 10 11 12
482
FTUS45 KTWC 240520
TAFTUS
TAF
KTUS 240520Z 2406/2506 30012KT P6SM SCT060
     FM240900 24006KT P6SM SKC
     FM241800 34007KT P6SM SKC
     FM250500 16005KT P6SM SKC=

USA.gov is the U.S. government's official web portal to all federal, state and local government web resources and services.